createdAt,value
2018-08-11T00:00:35.162Z,1007.28
2018-08-11T00:01:35.141Z,1007.20
2018-08-11T00:02:35.115Z,1007.20
2018-08-11T00:03:35.101Z,1007.15
2018-08-11T00:04:35.881Z,1007.15
2018-08-11T00:05:35.106Z,1007.10
2018-08-11T00:06:35.063Z,1007.11
2018-08-11T00:07:35.115Z,1007.10
2018-08-11T00:08:35.127Z,1007.13
2018-08-11T00:09:35.027Z,1007.13
2018-08-11T00:10:35.048Z,1007.14
2018-08-11T00:11:35.053Z,1007.13
2018-08-11T00:12:34.999Z,1007.10
2018-08-11T00:13:34.992Z,1007.09
2018-08-11T00:14:35.020Z,1007.12
2018-08-11T00:15:35.046Z,1007.09
2018-08-11T00:16:35.020Z,1007.10
2018-08-11T00:17:34.947Z,1007.07
2018-08-11T00:18:35.852Z,1007.08
2018-08-11T00:19:34.910Z,1007.04
2018-08-11T00:20:35.033Z,1007.08
2018-08-11T00:21:35.303Z,1007.05
2018-08-11T00:22:34.963Z,1007.11
2018-08-11T00:23:34.869Z,1007.13
2018-08-11T00:24:34.854Z,1007.11
2018-08-11T00:25:35.521Z,1007.10
2018-08-11T00:26:34.919Z,1007.10
2018-08-11T00:27:34.863Z,1007.10
2018-08-11T00:28:34.917Z,1007.05
2018-08-11T00:29:34.800Z,1007.09
2018-08-11T00:30:34.931Z,1007.16
2018-08-11T00:31:34.772Z,1007.09
2018-08-11T00:32:34.822Z,1007.06
2018-08-11T00:33:34.758Z,1007.11
2018-08-11T00:34:34.787Z,1007.10
2018-08-11T00:35:34.758Z,1007.14
2018-08-11T00:36:34.792Z,1007.08
2018-08-11T00:37:34.704Z,1007.06
2018-08-11T00:38:34.689Z,1007.06
2018-08-11T00:39:34.692Z,1007.04
2018-08-11T00:40:34.693Z,1007.12
2018-08-11T00:41:34.662Z,1007.06
2018-08-11T00:42:34.651Z,1007.14
2018-08-11T00:43:34.630Z,1007.15
2018-08-11T00:44:34.623Z,1007.13
2018-08-11T00:45:34.633Z,1007.07
2018-08-11T00:46:34.599Z,1007.12
2018-08-11T00:47:34.591Z,1007.13
2018-08-11T00:48:34.578Z,1007.10
2018-08-11T00:49:34.653Z,1007.14
2018-08-11T00:50:34.582Z,1007.15
2018-08-11T00:51:34.546Z,1007.13
2018-08-11T00:52:34.526Z,1007.21
2018-08-11T00:53:34.523Z,1007.17
2018-08-11T00:54:34.503Z,1007.23
2018-08-11T00:55:34.525Z,1007.24
2018-08-11T00:56:34.491Z,1007.16
2018-08-11T00:57:34.468Z,1007.20
2018-08-11T00:58:34.465Z,1007.13
2018-08-11T00:59:34.444Z,1007.23
2018-08-11T01:00:34.455Z,1007.20
2018-08-11T01:01:34.424Z,1007.23
2018-08-11T01:02:34.415Z,1007.26
2018-08-11T01:03:34.401Z,1007.28
2018-08-11T01:04:34.396Z,1007.22
2018-08-11T01:05:34.400Z,1007.24
2018-08-11T01:06:34.367Z,1007.31
2018-08-11T01:07:34.351Z,1007.21
2018-08-11T01:08:34.344Z,1007.28
2018-08-11T01:09:34.333Z,1007.30
2018-08-11T01:10:34.350Z,1007.26
2018-08-11T01:11:34.305Z,1007.30
2018-08-11T01:12:34.298Z,1007.26
2018-08-11T01:13:34.284Z,1007.34
2018-08-11T01:14:34.269Z,1007.36
2018-08-11T01:15:34.289Z,1007.46
2018-08-11T01:16:34.249Z,1007.47
2018-08-11T01:17:34.235Z,1007.51
2018-08-11T01:18:34.240Z,1007.61
2018-08-11T01:19:34.211Z,1007.54
2018-08-11T01:20:34.230Z,1007.60
2018-08-11T01:21:34.189Z,1007.66
2018-08-11T01:22:34.176Z,1007.70
2018-08-11T01:23:34.169Z,1007.67
2018-08-11T01:24:34.154Z,1007.71
2018-08-11T01:25:34.174Z,1007.80
2018-08-11T01:26:34.136Z,1007.83
2018-08-11T01:27:34.121Z,1007.84
2018-08-11T01:28:34.116Z,1007.96
2018-08-11T01:29:34.095Z,1007.95
2018-08-11T01:30:34.111Z,1008.07
2018-08-11T01:31:34.078Z,1007.90
2018-08-11T01:32:34.059Z,1008.03
2018-08-11T01:33:34.054Z,1007.96
2018-08-11T01:34:34.038Z,1007.93
2018-08-11T01:35:34.053Z,1007.95
2018-08-11T01:36:34.023Z,1008.10
2018-08-11T01:37:34.005Z,1008.11
2018-08-11T01:38:33.991Z,1008.19
2018-08-11T01:39:33.987Z,1008.26
2018-08-11T01:40:33.990Z,1008.22
2018-08-11T01:41:33.961Z,1008.21
2018-08-11T01:42:33.949Z,1008.34
2018-08-11T01:43:33.965Z,1008.24
2018-08-11T01:44:33.928Z,1008.23
2018-08-11T01:45:33.908Z,1008.26
2018-08-11T01:46:33.898Z,1008.23
2018-08-11T01:47:33.891Z,1008.13
2018-08-11T01:48:33.872Z,1008.19
2018-08-11T01:49:33.893Z,1008.18
2018-08-11T01:50:33.852Z,1008.19
2018-08-11T01:51:33.840Z,1008.28
2018-08-11T01:52:33.837Z,1008.26
2018-08-11T01:53:33.821Z,1008.30
2018-08-11T01:54:33.844Z,1008.29
2018-08-11T01:55:33.790Z,1008.29
2018-08-11T01:56:33.786Z,1008.25
2018-08-11T01:57:33.773Z,1008.34
2018-08-11T01:58:33.764Z,1008.31
2018-08-11T01:59:33.745Z,1008.32
2018-08-11T02:00:33.771Z,1008.29
2018-08-11T02:01:33.726Z,1008.34
2018-08-11T02:02:33.711Z,1008.24
2018-08-11T02:03:33.708Z,1008.22
2018-08-11T02:04:33.691Z,1008.19
2018-08-11T02:05:33.682Z,1008.28
2018-08-11T02:06:33.700Z,1008.24
2018-08-11T02:07:33.653Z,1008.21
2018-08-11T02:08:33.648Z,1008.14
2018-08-11T02:09:33.639Z,1008.18
2018-08-11T02:10:33.628Z,1008.07
2018-08-11T02:11:33.611Z,1008.10
2018-08-11T02:12:33.634Z,1008.08
2018-08-11T02:13:33.588Z,1008.14
2018-08-11T02:14:33.579Z,1008.15
2018-08-11T02:15:33.565Z,1008.16
2018-08-11T02:16:33.556Z,1008.18
2018-08-11T02:17:33.546Z,1008.20
2018-08-11T02:18:33.554Z,1008.17
2018-08-11T02:19:33.522Z,1008.07
2018-08-11T02:20:33.510Z,1008.04
2018-08-11T02:21:33.495Z,1007.94
2018-08-11T02:22:33.487Z,1007.95
2018-08-11T02:23:33.505Z,1007.87
2018-08-11T02:24:33.467Z,1007.78
2018-08-11T02:25:33.446Z,1007.84
2018-08-11T02:26:33.443Z,1007.88
2018-08-11T02:27:33.425Z,1007.87
2018-08-11T02:28:33.422Z,1007.77
2018-08-11T02:29:33.435Z,1007.73
2018-08-11T02:30:33.398Z,1007.75
2018-08-11T02:31:33.377Z,1007.86
2018-08-11T02:32:33.363Z,1007.79
2018-08-11T02:33:33.366Z,1007.85
2018-08-11T02:34:33.342Z,1007.85
2018-08-11T02:35:33.377Z,1007.88
2018-08-11T02:36:33.323Z,1007.84
2018-08-11T02:37:33.313Z,1007.88
2018-08-11T02:38:33.298Z,1007.92
2018-08-11T02:39:33.290Z,1007.88
2018-08-11T02:40:33.279Z,1007.83
2018-08-11T02:41:33.302Z,1007.87
2018-08-11T02:42:33.248Z,1007.84
2018-08-11T02:43:33.246Z,1007.88
2018-08-11T02:44:33.227Z,1007.92
2018-08-11T02:45:33.222Z,1007.86
2018-08-11T02:46:33.216Z,1007.91
2018-08-11T02:47:33.225Z,1007.92
2018-08-11T02:48:33.188Z,1007.98
2018-08-11T02:49:33.166Z,1008.03
2018-08-11T02:50:33.157Z,1008.06
2018-08-11T02:51:33.149Z,1008.00
2018-08-11T02:52:33.131Z,1007.98
2018-08-11T02:53:33.151Z,1007.95
2018-08-11T02:54:33.107Z,1007.87
2018-08-11T02:55:33.099Z,1007.94
2018-08-11T02:56:33.088Z,1008.11
2018-08-11T02:57:33.078Z,1008.07
2018-08-11T02:58:33.096Z,1008.13
2018-08-11T02:59:33.055Z,1008.12
2018-08-11T03:00:33.049Z,1008.17
2018-08-11T03:01:33.027Z,1008.18
2018-08-11T03:02:33.061Z,1008.18
2018-08-11T03:03:33.009Z,1008.20
2018-08-11T03:04:33.057Z,1008.23
2018-08-11T03:05:32.989Z,1008.24
2018-08-11T03:06:32.976Z,1008.29
2018-08-11T03:07:32.972Z,1008.30
2018-08-11T03:08:32.954Z,1008.25
2018-08-11T03:09:32.958Z,1008.25
2018-08-11T03:10:32.925Z,1008.22
2018-08-11T03:11:32.909Z,1008.22
2018-08-11T03:12:32.911Z,1008.28
2018-08-11T03:13:32.896Z,1008.27
2018-08-11T03:14:32.908Z,1008.30
2018-08-11T03:15:32.873Z,1008.23
2018-08-11T03:16:32.854Z,1008.30
2018-08-11T03:17:32.851Z,1008.34
2018-08-11T03:18:32.829Z,1008.34
2018-08-11T03:19:32.831Z,1008.29
2018-08-11T03:20:32.839Z,1008.30
2018-08-11T03:21:32.795Z,1008.33
2018-08-11T03:22:32.792Z,1008.25
2018-08-11T03:23:32.773Z,1008.29
2018-08-11T03:24:32.767Z,1008.29
2018-08-11T03:25:32.779Z,1008.30
2018-08-11T03:26:32.742Z,1008.32
2018-08-11T03:27:32.733Z,1008.35
2018-08-11T03:28:32.716Z,1008.32
2018-08-11T03:29:32.708Z,1008.37
2018-08-11T03:30:32.731Z,1008.32
2018-08-11T03:31:32.680Z,1008.30
2018-08-11T03:32:32.676Z,1008.35
2018-08-11T03:33:32.654Z,1008.35
2018-08-11T03:34:32.668Z,1008.26
2018-08-11T03:35:32.632Z,1008.29
2018-08-11T03:36:32.643Z,1008.28
2018-08-11T03:37:32.616Z,1008.30
2018-08-11T03:38:32.596Z,1008.38
2018-08-11T03:39:32.592Z,1008.36
2018-08-11T03:40:32.579Z,1008.44
2018-08-11T03:41:32.598Z,1008.42
2018-08-11T03:42:32.555Z,1008.41
2018-08-11T03:43:32.542Z,1008.39
2018-08-11T03:44:32.526Z,1008.41
2018-08-11T03:45:32.528Z,1008.40
2018-08-11T03:46:32.507Z,1008.31
2018-08-11T03:47:32.520Z,1008.34
2018-08-11T03:48:32.485Z,1008.35
2018-08-11T03:49:32.467Z,1008.36
2018-08-11T03:50:32.459Z,1008.32
2018-08-11T03:51:32.481Z,1008.40
2018-08-11T03:52:32.500Z,1008.37
2018-08-11T03:53:32.422Z,1008.40
2018-08-11T03:54:32.409Z,1008.42
2018-08-11T03:55:32.399Z,1008.45
2018-08-11T03:56:32.390Z,1008.40
2018-08-11T03:57:32.396Z,1008.40
2018-08-11T03:58:32.357Z,1008.37
2018-08-11T03:59:32.355Z,1008.45
2018-08-11T04:00:32.344Z,1008.44
2018-08-11T04:01:32.338Z,1008.53
2018-08-11T04:02:32.352Z,1008.46
2018-08-11T04:03:32.300Z,1008.45
2018-08-11T04:04:32.297Z,1008.46
2018-08-11T04:05:32.275Z,1008.51
2018-08-11T04:06:32.309Z,1008.50
2018-08-11T04:07:32.256Z,1008.53
2018-08-11T04:08:32.265Z,1008.51
2018-08-11T04:09:32.236Z,1008.57
2018-08-11T04:10:32.221Z,1008.58
2018-08-11T04:11:32.206Z,1008.55
2018-08-11T04:12:32.195Z,1008.62
2018-08-11T04:13:32.222Z,1008.63
2018-08-11T04:14:32.177Z,1008.62
2018-08-11T04:15:32.161Z,1008.59
2018-08-11T04:16:32.142Z,1008.61
2018-08-11T04:17:32.144Z,1008.62
2018-08-11T04:18:32.123Z,1008.66
2018-08-11T04:19:32.150Z,1008.70
2018-08-11T04:20:32.096Z,1008.68
2018-08-11T04:21:32.092Z,1008.67
2018-08-11T04:22:32.072Z,1008.68
2018-08-11T04:23:32.069Z,1008.70
2018-08-11T04:24:32.059Z,1008.75
2018-08-11T04:25:32.061Z,1008.73
2018-08-11T04:26:32.035Z,1008.75
2018-08-11T04:27:32.012Z,1008.78
2018-08-11T04:28:32.009Z,1008.79
2018-08-11T04:29:31.992Z,1008.78
2018-08-11T04:30:32.007Z,1008.79
2018-08-11T04:31:31.969Z,1008.74
2018-08-11T04:32:31.955Z,1008.73
2018-08-11T04:33:31.945Z,1008.72
2018-08-11T04:34:31.942Z,1008.75
2018-08-11T04:35:31.947Z,1008.73
2018-08-11T04:36:31.948Z,1008.71
2018-08-11T04:37:31.894Z,1008.74
2018-08-11T04:38:31.894Z,1008.76
2018-08-11T04:39:31.869Z,1008.73
2018-08-11T04:40:31.860Z,1008.77
2018-08-11T04:41:31.860Z,1008.76
2018-08-11T04:42:31.857Z,1008.78
2018-08-11T04:43:31.833Z,1008.78
2018-08-11T04:44:31.814Z,1008.80
2018-08-11T04:45:31.808Z,1008.84
2018-08-11T04:46:31.792Z,1008.81
2018-08-11T04:47:31.801Z,1008.84
2018-08-11T04:48:31.772Z,1008.89
2018-08-11T04:49:31.763Z,1008.84
2018-08-11T04:50:31.747Z,1008.87
2018-08-11T04:51:31.733Z,1008.90
2018-08-11T04:52:31.757Z,1008.84
2018-08-11T04:53:31.711Z,1008.90
2018-08-11T04:54:31.701Z,1008.95
2018-08-11T04:55:31.686Z,1008.91
2018-08-11T04:56:31.675Z,1008.93
2018-08-11T04:57:31.668Z,1008.89
2018-08-11T04:58:31.682Z,1008.80
2018-08-11T04:59:31.655Z,1008.89
2018-08-11T05:00:31.629Z,1008.86
2018-08-11T05:01:31.620Z,1008.84
2018-08-11T05:02:31.612Z,1008.92
2018-08-11T05:03:31.591Z,1008.94
2018-08-11T05:04:31.607Z,1008.93
2018-08-11T05:05:31.577Z,1008.94
2018-08-11T05:06:31.563Z,1008.98
2018-08-11T05:07:31.549Z,1009.00
2018-08-11T05:08:31.565Z,1008.99
2018-08-11T05:09:31.545Z,1009.05
2018-08-11T05:10:31.517Z,1009.02
2018-08-11T05:11:31.503Z,1009.08
2018-08-11T05:12:31.496Z,1009.13
2018-08-11T05:13:31.477Z,1009.08
2018-08-11T05:14:31.488Z,1009.05
2018-08-11T05:15:31.461Z,1009.07
2018-08-11T05:16:31.448Z,1009.08
2018-08-11T05:17:31.435Z,1009.05
2018-08-11T05:18:31.459Z,1009.08
2018-08-11T05:19:31.413Z,1009.13
2018-08-11T05:20:31.408Z,1009.23
2018-08-11T05:21:31.385Z,1009.13
2018-08-11T05:22:31.382Z,1009.17
2018-08-11T05:23:31.362Z,1009.13
2018-08-11T05:24:31.387Z,1009.21
2018-08-11T05:25:31.343Z,1009.19
2018-08-11T05:26:31.335Z,1009.25
2018-08-11T05:27:31.334Z,1009.24
2018-08-11T05:28:31.305Z,1009.27
2018-08-11T05:29:31.327Z,1009.30
2018-08-11T05:30:31.289Z,1009.32
2018-08-11T05:31:31.275Z,1009.31
2018-08-11T05:32:31.269Z,1009.29
2018-08-11T05:33:31.256Z,1009.32
2018-08-11T05:34:31.269Z,1009.36
2018-08-11T05:35:31.224Z,1009.33
2018-08-11T05:36:31.226Z,1009.39
2018-08-11T05:37:31.205Z,1009.36
2018-08-11T05:38:31.196Z,1009.42
2018-08-11T05:39:31.206Z,1009.33
2018-08-11T05:40:31.168Z,1009.34
2018-08-11T05:41:31.195Z,1009.42
2018-08-11T05:42:31.148Z,1009.46
2018-08-11T05:43:31.143Z,1009.43
2018-08-11T05:44:31.153Z,1009.46
2018-08-11T05:45:31.111Z,1009.36
2018-08-11T05:46:31.108Z,1009.43
2018-08-11T05:47:31.093Z,1009.49
2018-08-11T05:48:31.092Z,1009.53
2018-08-11T05:49:31.099Z,1009.44
2018-08-11T05:50:31.060Z,1009.52
2018-08-11T05:51:31.045Z,1009.49
2018-08-11T05:52:31.033Z,1009.38
2018-08-11T05:53:31.027Z,1009.40
2018-08-11T05:54:31.017Z,1009.43
2018-08-11T05:55:31.018Z,1009.44
2018-08-11T05:56:30.987Z,1009.46
2018-08-11T05:57:30.974Z,1009.45
2018-08-11T05:58:30.965Z,1009.45
2018-08-11T05:59:30.955Z,1009.48
2018-08-11T06:00:30.977Z,1009.48
2018-08-11T06:01:30.928Z,1009.60
2018-08-11T06:02:30.920Z,1009.50
2018-08-11T06:03:30.912Z,1009.60
2018-08-11T06:04:30.901Z,1009.59
2018-08-11T06:05:30.878Z,1009.50
2018-08-11T06:06:30.916Z,1009.61
2018-08-11T06:07:30.855Z,1009.52
2018-08-11T06:08:30.843Z,1009.57
2018-08-11T06:09:30.842Z,1009.56
2018-08-11T06:10:30.872Z,1009.58
2018-08-11T06:11:30.820Z,1009.50
2018-08-11T06:12:30.826Z,1009.58
2018-08-11T06:13:30.788Z,1009.51
2018-08-11T06:14:30.780Z,1009.56
2018-08-11T06:15:30.766Z,1009.59
2018-08-11T06:16:30.753Z,1009.59
2018-08-11T06:17:30.767Z,1009.59
2018-08-11T06:18:30.729Z,1009.67
2018-08-11T06:19:30.723Z,1009.67
2018-08-11T06:20:30.703Z,1009.67
2018-08-11T06:21:30.701Z,1009.70
2018-08-11T06:22:30.719Z,1009.65
2018-08-11T06:23:30.673Z,1009.66
2018-08-11T06:24:30.665Z,1009.65
2018-08-11T06:25:30.644Z,1009.69
2018-08-11T06:26:30.638Z,1009.65
2018-08-11T06:27:30.627Z,1009.70
2018-08-11T06:28:30.637Z,1009.70
2018-08-11T06:29:30.606Z,1009.79
2018-08-11T06:30:30.595Z,1009.75
2018-08-11T06:31:30.619Z,1009.74
2018-08-11T06:32:30.568Z,1009.78
2018-08-11T06:33:30.588Z,1009.77
2018-08-11T06:34:30.539Z,1009.78
2018-08-11T06:35:30.539Z,1009.80
2018-08-11T06:36:30.519Z,1009.75
2018-08-11T06:37:30.510Z,1009.81
2018-08-11T06:38:30.502Z,1009.79
2018-08-11T06:39:30.514Z,1009.79
2018-08-11T06:40:30.511Z,1009.90
2018-08-11T06:41:30.461Z,1010.14
2018-08-11T06:42:30.456Z,1009.88
2018-08-11T06:43:30.443Z,1009.97
2018-08-11T06:44:30.424Z,1009.92
2018-08-11T06:45:30.448Z,1009.97
2018-08-11T06:46:30.427Z,1010.07
2018-08-11T06:47:30.394Z,1010.05
2018-08-11T06:48:30.386Z,1010.04
2018-08-11T06:49:30.380Z,1010.09
2018-08-11T06:50:30.359Z,1010.09
2018-08-11T06:51:30.374Z,1010.08
2018-08-11T06:52:30.338Z,1010.06
2018-08-11T06:53:30.327Z,1010.03
2018-08-11T06:54:30.315Z,1010.12
2018-08-11T06:55:30.352Z,1010.12
2018-08-11T06:56:30.288Z,1010.15
2018-08-11T06:57:30.304Z,1010.14
2018-08-11T06:58:30.266Z,1010.09
2018-08-11T06:59:30.266Z,1010.37
2018-08-11T07:00:30.249Z,1010.39
2018-08-11T07:01:30.235Z,1010.20
2018-08-11T07:02:30.255Z,1010.25
2018-08-11T07:03:30.208Z,1010.08
2018-08-11T07:04:30.199Z,1010.06
2018-08-11T07:05:30.195Z,1010.04
2018-08-11T07:06:30.210Z,1010.04
2018-08-11T07:07:30.195Z,1010.40
2018-08-11T07:08:30.195Z,1010.38
2018-08-11T07:09:30.141Z,1010.30
2018-08-11T07:10:30.133Z,1010.57
2018-08-11T07:11:30.114Z,1010.54
2018-08-11T07:12:30.100Z,1010.06
2018-08-11T07:13:30.131Z,1010.14
2018-08-11T07:14:30.085Z,1010.29
2018-08-11T07:15:30.070Z,1010.30
2018-08-11T07:16:30.055Z,1010.14
2018-08-11T07:17:30.053Z,1010.22
2018-08-11T07:18:30.376Z,1010.20
2018-08-11T07:19:30.049Z,1010.40
2018-08-11T07:20:30.188Z,1010.44
2018-08-11T07:21:29.999Z,1010.28
2018-08-11T07:22:29.991Z,1010.53
2018-08-11T07:23:29.981Z,1010.48
2018-08-11T07:24:29.996Z,1010.55
2018-08-11T07:25:29.962Z,1010.54
2018-08-11T07:26:29.991Z,1010.54
2018-08-11T07:27:29.932Z,1010.57
2018-08-11T07:28:29.924Z,1010.60
2018-08-11T07:29:30.020Z,1010.60
2018-08-11T07:30:29.933Z,1010.65
2018-08-11T07:31:30.199Z,1010.61
2018-08-11T07:32:29.887Z,1010.22
2018-08-11T07:33:29.863Z,1010.66
2018-08-11T07:34:29.852Z,1010.67
2018-08-11T07:35:29.839Z,1010.23
2018-08-11T07:36:29.992Z,1010.58
2018-08-11T07:37:29.824Z,1010.27
2018-08-11T07:38:29.803Z,1010.32
2018-08-11T07:39:29.801Z,1010.34
2018-08-11T07:40:29.793Z,1010.34
2018-08-11T07:41:29.768Z,1010.36
2018-08-11T07:42:29.786Z,1010.36
2018-08-11T07:43:29.780Z,1010.30
2018-08-11T07:44:29.735Z,1010.31
2018-08-11T07:45:29.733Z,1010.67
2018-08-11T07:46:29.710Z,1010.36
2018-08-11T07:47:30.331Z,1010.48
2018-08-11T07:48:29.696Z,1010.81
2018-08-11T07:49:29.679Z,1010.48
2018-08-11T07:50:29.678Z,1010.89
2018-08-11T07:51:29.663Z,1010.45
2018-08-11T07:52:29.655Z,1010.58
2018-08-11T07:53:29.669Z,1010.97
2018-08-11T07:54:29.627Z,1010.58
2018-08-11T07:55:29.613Z,1010.94
2018-08-11T07:56:29.595Z,1011.01
2018-08-11T07:57:29.593Z,1010.93
2018-08-11T07:58:29.571Z,1010.93
2018-08-11T07:59:29.598Z,1010.99
2018-08-11T08:00:29.558Z,1010.94
2018-08-11T08:01:29.606Z,1011.06
2018-08-11T08:02:29.529Z,1011.03
2018-08-11T08:03:29.521Z,1010.98
2018-08-11T08:04:29.549Z,1010.56
2018-08-11T08:05:29.508Z,1010.85
2018-08-11T08:06:29.491Z,1010.56
2018-08-11T08:07:29.473Z,1010.64
2018-08-11T08:08:29.461Z,1010.84
2018-08-11T08:09:29.586Z,1010.66
2018-08-11T08:10:29.466Z,1011.07
2018-08-11T08:11:29.427Z,1010.59
2018-08-11T08:12:29.422Z,1011.08
2018-08-11T08:13:29.404Z,1010.59
2018-08-11T08:14:29.400Z,1011.00
2018-08-11T08:15:29.381Z,1011.06
2018-08-11T08:16:29.393Z,1011.12
2018-08-11T08:17:29.368Z,1011.15
2018-08-11T08:18:29.348Z,1011.12
2018-08-11T08:19:29.343Z,1011.13
2018-08-11T08:20:29.326Z,1011.15
2018-08-11T08:21:29.346Z,1011.22
2018-08-11T08:22:29.308Z,1011.27
2018-08-11T08:23:29.294Z,1011.20
2018-08-11T08:24:29.282Z,1011.17
2018-08-11T08:25:29.268Z,1011.22
2018-08-11T08:26:29.630Z,1010.79
2018-08-11T08:27:29.247Z,1011.20
2018-08-11T08:28:29.241Z,1010.80
2018-08-11T08:29:29.227Z,1010.71
2018-08-11T08:30:29.218Z,1010.81
2018-08-11T08:31:29.204Z,1011.12
2018-08-11T08:32:29.227Z,1011.18
2018-08-11T08:33:29.409Z,1011.21
2018-08-11T08:34:29.170Z,1011.17
2018-08-11T08:35:29.163Z,1011.16
2018-08-11T08:36:29.148Z,1011.08
2018-08-11T08:37:29.140Z,1011.19
2018-08-11T08:38:29.155Z,1011.22
2018-08-11T08:39:29.160Z,1011.12
2018-08-11T08:40:29.101Z,1011.21
2018-08-11T08:41:29.093Z,1011.16
2018-08-11T08:42:29.080Z,1011.24
2018-08-11T08:43:29.095Z,1011.31
2018-08-11T08:44:29.069Z,1011.30
2018-08-11T08:45:29.047Z,1011.30
2018-08-11T08:46:29.038Z,1011.25
2018-08-11T08:47:29.073Z,1010.66
2018-08-11T08:48:29.042Z,1010.66
2018-08-11T08:49:29.012Z,1011.21
2018-08-11T08:50:29.002Z,1011.29
2018-08-11T08:51:28.982Z,1011.22
2018-08-11T08:52:28.975Z,1011.19
2018-08-11T08:53:28.969Z,1010.86
2018-08-11T08:54:28.984Z,1011.15
2018-08-11T08:55:28.947Z,1011.25
2018-08-11T08:56:28.933Z,1011.20
2018-08-11T08:57:28.922Z,1011.20
2018-08-11T08:58:28.914Z,1011.14
2018-08-11T08:59:28.899Z,1011.17
2018-08-11T09:00:29.168Z,1011.20
2018-08-11T09:01:28.881Z,1011.21
2018-08-11T09:02:28.863Z,1011.21
2018-08-11T09:03:28.858Z,1011.13
2018-08-11T09:04:28.849Z,1011.18
2018-08-11T09:05:28.840Z,1011.14
2018-08-11T09:06:28.848Z,1011.12
2018-08-11T09:07:28.807Z,1011.29
2018-08-11T09:08:28.801Z,1011.07
2018-08-11T09:09:28.784Z,1011.29
2018-08-11T09:10:28.775Z,1011.18
2018-08-11T09:11:28.801Z,1011.26
2018-08-11T09:12:28.760Z,1011.25
2018-08-11T09:13:28.744Z,1011.13
2018-08-11T09:14:28.737Z,1011.19
2018-08-11T09:15:28.729Z,1010.76
2018-08-11T09:16:28.710Z,1010.64
2018-08-11T09:17:28.739Z,1010.74
2018-08-11T09:18:28.694Z,1010.63
2018-08-11T09:19:28.733Z,1011.22
2018-08-11T09:20:28.675Z,1011.17
2018-08-11T09:21:28.653Z,1011.29
2018-08-11T09:22:28.647Z,1010.63
2018-08-11T09:23:28.662Z,1010.63
2018-08-11T09:24:28.630Z,1010.60
2018-08-11T09:25:28.611Z,1010.50
2018-08-11T09:26:28.611Z,1010.64
2018-08-11T09:27:28.588Z,1010.63
2018-08-11T09:28:28.606Z,1011.21
2018-08-11T09:29:29.907Z,1011.20
2018-08-11T09:30:28.667Z,1011.15
2018-08-11T09:31:28.546Z,1011.24
2018-08-11T09:32:28.824Z,1010.65
2018-08-11T09:33:28.553Z,1010.74
2018-08-11T09:34:28.586Z,1011.32
2018-08-11T09:35:28.499Z,1011.38
2018-08-11T09:36:28.489Z,1010.90
2018-08-11T09:37:28.644Z,1011.31
2018-08-11T09:38:28.544Z,1010.89
2018-08-11T09:39:28.488Z,1010.72
2018-08-11T09:40:28.451Z,1010.83
2018-08-11T09:41:28.443Z,1011.35
2018-08-11T09:42:28.428Z,1011.44
2018-08-11T09:43:28.414Z,1011.42
2018-08-11T09:44:28.432Z,1011.38
2018-08-11T09:45:28.396Z,1011.39
2018-08-11T09:46:28.382Z,1010.82
2018-08-11T09:47:28.370Z,1011.47
2018-08-11T09:48:28.363Z,1011.47
2018-08-11T09:49:28.379Z,1011.44
2018-08-11T09:50:28.344Z,1010.84
2018-08-11T09:51:28.330Z,1010.87
2018-08-11T09:52:28.319Z,1010.73
2018-08-11T09:53:28.315Z,1010.81
2018-08-11T09:54:28.331Z,1010.77
2018-08-11T09:55:28.290Z,1010.73
2018-08-11T09:56:28.282Z,1010.78
2018-08-11T09:57:28.262Z,1010.77
2018-08-11T09:58:28.259Z,1010.81
2018-08-11T09:59:28.238Z,1010.81
2018-08-11T10:00:28.260Z,1010.79
2018-08-11T10:01:28.224Z,1010.85
2018-08-11T10:02:28.206Z,1011.33
2018-08-11T10:03:28.204Z,1010.91
2018-08-11T10:04:28.187Z,1010.80
2018-08-11T10:05:28.179Z,1011.32
2018-08-11T10:06:28.193Z,1011.25
2018-08-11T10:07:28.154Z,1011.38
2018-08-11T10:08:28.146Z,1011.41
2018-08-11T10:09:28.132Z,1011.38
2018-08-11T10:10:28.130Z,1010.66
2018-08-11T10:11:28.139Z,1011.24
2018-08-11T10:12:28.095Z,1010.76
2018-08-11T10:13:28.096Z,1010.70
2018-08-11T10:14:28.080Z,1010.57
2018-08-11T10:15:28.069Z,1010.65
2018-08-11T10:16:28.093Z,1010.68
2018-08-11T10:17:28.047Z,1011.27
2018-08-11T10:18:28.663Z,1011.28
2018-08-11T10:19:28.026Z,1010.82
2018-08-11T10:20:28.011Z,1010.74
2018-08-11T10:21:28.008Z,1010.72
2018-08-11T10:22:28.017Z,1011.31
2018-08-11T10:23:27.980Z,1010.81
2018-08-11T10:24:27.974Z,1010.72
2018-08-11T10:25:27.955Z,1010.68
2018-08-11T10:26:27.952Z,1010.73
2018-08-11T10:27:27.965Z,1010.66
2018-08-11T10:28:27.931Z,1010.60
2018-08-11T10:29:27.910Z,1010.59
2018-08-11T10:30:27.902Z,1010.68
2018-08-11T10:31:27.892Z,1011.21
2018-08-11T10:32:27.884Z,1010.73
2018-08-11T10:33:27.899Z,1010.54
2018-08-11T10:34:27.855Z,1010.56
2018-08-11T10:35:27.856Z,1011.01
2018-08-11T10:36:27.843Z,1011.22
2018-08-11T10:37:27.856Z,1011.11
2018-08-11T10:38:27.821Z,1010.85
2018-08-11T10:39:27.800Z,1011.01
2018-08-11T10:40:27.792Z,1010.62
2018-08-11T10:41:27.789Z,1010.61
2018-08-11T10:42:27.774Z,1010.58
2018-08-11T10:43:27.782Z,1010.55
2018-08-11T10:44:27.753Z,1010.63
2018-08-11T10:45:27.737Z,1010.89
2018-08-11T10:46:27.731Z,1010.60
2018-08-11T10:47:27.717Z,1010.62
2018-08-11T10:48:27.745Z,1010.64
2018-08-11T10:49:27.697Z,1010.64
2018-08-11T10:50:27.683Z,1011.18
2018-08-11T10:51:27.675Z,1011.17
2018-08-11T10:52:27.657Z,1011.24
2018-08-11T10:53:27.655Z,1011.21
2018-08-11T10:54:27.664Z,1011.20
2018-08-11T10:55:27.629Z,1010.52
2018-08-11T10:56:27.617Z,1010.80
2018-08-11T10:57:27.609Z,1011.15
2018-08-11T10:58:27.600Z,1011.23
2018-08-11T10:59:27.604Z,1011.26
2018-08-11T11:00:27.573Z,1011.20
2018-08-11T11:01:27.574Z,1011.26
2018-08-11T11:02:27.560Z,1011.41
2018-08-11T11:03:27.539Z,1011.32
2018-08-11T11:04:27.566Z,1011.31
2018-08-11T11:05:27.521Z,1010.77
2018-08-11T11:06:27.507Z,1011.12
2018-08-11T11:07:27.505Z,1010.92
2018-08-11T11:08:27.555Z,1011.10
2018-08-11T11:09:27.480Z,1011.21
2018-08-11T11:10:27.496Z,1011.16
2018-08-11T11:11:27.455Z,1010.62
2018-08-11T11:12:27.451Z,1010.60
2018-08-11T11:13:27.436Z,1010.60
2018-08-11T11:14:27.432Z,1010.55
2018-08-11T11:15:27.447Z,1010.61
2018-08-11T11:16:27.407Z,1011.16
2018-08-11T11:17:27.394Z,1011.16
2018-08-11T11:18:27.381Z,1011.23
2018-08-11T11:19:27.381Z,1011.22
2018-08-11T11:20:27.362Z,1011.20
2018-08-11T11:21:27.378Z,1011.19
2018-08-11T11:22:27.347Z,1011.23
2018-08-11T11:23:27.327Z,1011.29
2018-08-11T11:24:27.322Z,1011.22
2018-08-11T11:25:27.309Z,1011.24
2018-08-11T11:26:27.317Z,1011.21
2018-08-11T11:27:27.298Z,1011.24
2018-08-11T11:28:27.284Z,1011.26
2018-08-11T11:29:27.273Z,1011.16
2018-08-11T11:30:27.266Z,1011.25
2018-08-11T11:31:27.281Z,1011.14
2018-08-11T11:32:27.240Z,1011.19
2018-08-11T11:33:27.234Z,1011.20
2018-08-11T11:34:27.219Z,1010.65
2018-08-11T11:35:27.212Z,1010.59
2018-08-11T11:36:27.198Z,1011.21
2018-08-11T11:37:27.214Z,1011.18
2018-08-11T11:38:27.184Z,1010.82
2018-08-11T11:39:27.178Z,1011.10
2018-08-11T11:40:27.163Z,1010.71
2018-08-11T11:41:27.154Z,1010.63
2018-08-11T11:42:27.172Z,1010.57
2018-08-11T11:43:27.244Z,1010.54
2018-08-11T11:44:27.122Z,1010.63
2018-08-11T11:45:27.111Z,1010.66
2018-08-11T11:46:27.124Z,1010.69
2018-08-11T11:47:27.089Z,1010.59
2018-08-11T11:48:27.102Z,1010.66
2018-08-11T11:49:27.066Z,1010.69
2018-08-11T11:50:27.121Z,1010.64
2018-08-11T11:51:27.142Z,1010.86
2018-08-11T11:52:27.041Z,1011.08
2018-08-11T11:53:27.782Z,1011.07
2018-08-11T11:54:27.163Z,1010.56
2018-08-11T11:55:27.005Z,1010.56
2018-08-11T11:56:27.006Z,1010.67
2018-08-11T11:57:26.980Z,1011.04
2018-08-11T11:58:26.996Z,1010.98
2018-08-11T11:59:26.959Z,1010.99
2018-08-11T12:00:26.947Z,1010.93
2018-08-11T12:01:26.940Z,1010.91
2018-08-11T12:02:26.926Z,1010.53
2018-08-11T12:03:26.943Z,1010.74
2018-08-11T12:04:26.911Z,1010.92
2018-08-11T12:05:27.194Z,1010.94